PWSweather.com
Personal Weather Stations
Station Observations
KMOHERMA2
Stony Hill, Hermann, MO 65041

Stony HillHermann, MO 65041

Lat: 38.527, Lon: -91.414

Elevation: 896

Station Type: Davis Vantage Pro 2

High Low Average
Temperature 61.6°F16.4°C 51.7°F10.9°C 56.9°F13.8°C
Dew Point 60.1°F15.6°C 50.2°F10.1°C 55.3°F12.9°C
Winds Calm Calm Calm Calm Calm SECalm SE
Wind Gusts -- -- --
Humidity 96% 91% 95%
Pressure 30.04 in1017.3 mb 29.90 in1012.5 mb -
Precipitation 0.32 in8.1 mm - -
Hour Temp Dew Point Humidity Winds Wind Gusts Pressure Precip Precip Rate Daily Precip Total
12:00 AM 60.0°F15.6°C 57.4°F14.1°C 91% Calm Calm -- 29.95 in1014.2 mb 0.00 in0.0 mm 0.00 in0.0 mm 0.00 in0.0 mm
12:05 AM 60.0°F15.6°C 57.4°F14.1°C 91% Calm Calm -- 29.94 in1013.9 mb 0.00 in0.0 mm 0.00 in0.0 mm 0.00 in0.0 mm
12:10 AM 60.1°F15.6°C 57.4°F14.1°C 91% Calm Calm -- 29.94 in1013.9 mb 0.00 in0.0 mm 0.00 in0.0 mm 0.00 in0.0 mm
12:15 AM 60.1°F15.6°C 57.4°F14.1°C 91% Calm Calm -- 29.94 in1013.9 mb 0.00 in0.0 mm 0.00 in0.0 mm 0.00 in0.0 mm
12:20 AM 60.1°F15.6°C 57.4°F14.1°C 91% Calm Calm -- 29.94 in1013.9 mb 0.00 in0.0 mm 0.00 in0.0 mm 0.00 in0.0 mm
12:25 AM 60.1°F15.6°C 57.4°F14.1°C 91% Calm Calm -- 29.94 in1013.9 mb 0.00 in0.0 mm 0.00 in0.0 mm 0.00 in0.0 mm
12:30 AM 60.2°F15.7°C 57.6°F14.2°C 91% Calm Calm -- 29.94 in1013.9 mb 0.00 in0.0 mm 0.00 in0.0 mm 0.00 in0.0 mm
12:35 AM 60.2°F15.7°C 57.6°F14.2°C 91% Calm Calm -- 29.94 in1013.9 mb 0.00 in0.0 mm 0.00 in0.0 mm 0.00 in0.0 mm
12:40 AM 60.3°F15.7°C 57.6°F14.2°C 91% Calm Calm -- 29.94 in1013.9 mb 0.00 in0.0 mm 0.00 in0.0 mm 0.00 in0.0 mm
12:45 AM 60.3°F15.7°C 57.6°F14.2°C 91% Calm Calm -- 29.94 in1013.9 mb 0.00 in0.0 mm 0.00 in0.0 mm 0.00 in0.0 mm
12:50 AM 60.4°F15.8°C 57.7°F14.3°C 91% Calm Calm -- 29.94 in1013.9 mb 0.00 in0.0 mm 0.00 in0.0 mm 0.00 in0.0 mm
12:55 AM 60.4°F15.8°C 57.7°F14.3°C 91% Calm Calm -- 29.94 in1013.9 mb 0.00 in0.0 mm 0.00 in0.0 mm 0.00 in0.0 mm
01:00 AM 60.5°F15.8°C 57.7°F14.3°C 91% Calm Calm -- 29.94 in1013.9 mb 0.00 in0.0 mm 0.00 in0.0 mm 0.00 in0.0 mm
01:05 AM 60.5°F15.8°C 57.7°F14.3°C 91% Calm Calm -- 29.94 in1013.9 mb 0.00 in0.0 mm 0.00 in0.0 mm 0.00 in0.0 mm
01:10 AM 60.5°F15.8°C 57.7°F14.3°C 91% Calm Calm -- 29.94 in1013.9 mb 0.00 in0.0 mm 0.00 in0.0 mm 0.00 in0.0 mm
01:15 AM 60.5°F15.8°C 57.7°F14.3°C 91% Calm Calm -- 29.94 in1013.9 mb 0.00 in0.0 mm 0.00 in0.0 mm 0.00 in0.0 mm
01:20 AM 60.4°F15.8°C 57.7°F14.3°C 91% Calm Calm -- 29.94 in1013.9 mb 0.00 in0.0 mm 0.00 in0.0 mm 0.00 in0.0 mm
01:25 AM 60.4°F15.8°C 57.7°F14.3°C 91% Calm Calm -- 29.94 in1013.9 mb 0.00 in0.0 mm 0.00 in0.0 mm 0.00 in0.0 mm
01:30 AM 60.4°F15.8°C 57.7°F14.3°C 91% Calm Calm -- 29.94 in1013.9 mb 0.00 in0.0 mm 0.00 in0.0 mm 0.00 in0.0 mm
01:35 AM 60.3°F15.7°C 57.6°F14.2°C 91% Calm Calm -- 29.94 in1013.9 mb 0.00 in0.0 mm 0.00 in0.0 mm 0.00 in0.0 mm
01:40 AM 60.3°F15.7°C 57.6°F14.2°C 91% Calm Calm -- 29.94 in1013.9 mb 0.00 in0.0 mm 0.00 in0.0 mm 0.00 in0.0 mm
01:45 AM 60.2°F15.7°C 57.6°F14.2°C 91% Calm Calm -- 29.94 in1013.9 mb 0.00 in0.0 mm 0.00 in0.0 mm 0.00 in0.0 mm
01:50 AM 60.2°F15.7°C 57.6°F14.2°C 91% Calm Calm -- 29.93 in1013.5 mb 0.00 in0.0 mm 0.00 in0.0 mm 0.00 in0.0 mm
01:55 AM 60.1°F15.6°C 57.4°F14.1°C 91% Calm Calm -- 29.94 in1013.9 mb 0.00 in0.0 mm 0.00 in0.0 mm 0.00 in0.0 mm
02:00 AM 60.0°F15.6°C 57.4°F14.1°C 91% Calm Calm -- 29.93 in1013.5 mb 0.00 in0.0 mm 0.00 in0.0 mm 0.00 in0.0 mm
02:05 AM 60.0°F15.6°C 57.4°F14.1°C 91% Calm Calm -- 29.93 in1013.5 mb 0.00 in0.0 mm 0.00 in0.0 mm 0.00 in0.0 mm
02:10 AM 59.9°F15.5°C 57.2°F14.0°C 91% Calm Calm -- 29.93 in1013.5 mb 0.00 in0.0 mm 0.00 in0.0 mm 0.00 in0.0 mm
02:15 AM 59.8°F15.4°C 57.4°F14.1°C 92% Calm Calm -- 29.93 in1013.5 mb 0.00 in0.0 mm 0.00 in0.0 mm 0.00 in0.0 mm
02:20 AM 59.9°F15.5°C 57.6°F14.2°C 92% Calm Calm -- 29.93 in1013.5 mb 0.00 in0.0 mm 0.00 in0.0 mm 0.00 in0.0 mm
02:25 AM 59.9°F15.5°C 57.6°F14.2°C 92% Calm Calm -- 29.93 in1013.5 mb 0.00 in0.0 mm 0.00 in0.0 mm 0.00 in0.0 mm
02:30 AM 59.9°F15.5°C 57.6°F14.2°C 92% Calm Calm -- 29.93 in1013.5 mb 0.00 in0.0 mm 0.00 in0.0 mm 0.00 in0.0 mm
02:35 AM 60.0°F15.6°C 57.7°F14.3°C 92% Calm Calm -- 29.92 in1013.2 mb 0.00 in0.0 mm 0.00 in0.0 mm 0.00 in0.0 mm
02:40 AM 60.0°F15.6°C 58.1°F14.5°C 93% Calm Calm -- 29.92 in1013.2 mb 0.00 in0.0 mm 0.00 in0.0 mm 0.00 in0.0 mm
02:45 AM 60.1°F15.6°C 58.1°F14.5°C 93% Calm Calm -- 29.92 in1013.2 mb 0.00 in0.0 mm 0.00 in0.0 mm 0.00 in0.0 mm
02:50 AM 60.1°F15.6°C 58.1°F14.5°C 93% Calm Calm -- 29.92 in1013.2 mb 0.00 in0.0 mm 0.00 in0.0 mm 0.00 in0.0 mm
02:55 AM 60.1°F15.6°C 58.1°F14.5°C 93% Calm Calm -- 29.92 in1013.2 mb 0.00 in0.0 mm 0.00 in0.0 mm 0.00 in0.0 mm
03:00 AM 60.1°F15.6°C 58.1°F14.5°C 93% Calm Calm -- 29.91 in1012.9 mb 0.00 in0.0 mm 0.00 in0.0 mm 0.00 in0.0 mm
03:05 AM 60.1°F15.6°C 58.1°F14.5°C 93% Calm Calm -- 29.91 in1012.9 mb 0.00 in0.0 mm 0.00 in0.0 mm 0.00 in0.0 mm
03:10 AM 60.1°F15.6°C 58.1°F14.5°C 93% Calm Calm -- 29.92 in1013.2 mb 0.00 in0.0 mm 0.00 in0.0 mm 0.00 in0.0 mm
03:15 AM 60.2°F15.7°C 58.3°F14.6°C 93% Calm Calm -- 29.92 in1013.2 mb 0.00 in0.0 mm 0.00 in0.0 mm 0.00 in0.0 mm
03:20 AM 60.2°F15.7°C 58.3°F14.6°C 93% Calm Calm -- 29.92 in1013.2 mb 0.00 in0.0 mm 0.00 in0.0 mm 0.00 in0.0 mm
03:25 AM 60.2°F15.7°C 58.3°F14.6°C 93% Calm Calm -- 29.92 in1013.2 mb 0.00 in0.0 mm 0.00 in0.0 mm 0.00 in0.0 mm
03:30 AM 60.2°F15.7°C 58.3°F14.6°C 93% Calm Calm -- 29.92 in1013.2 mb 0.00 in0.0 mm 0.00 in0.0 mm 0.00 in0.0 mm
03:35 AM 60.3°F15.7°C 58.3°F14.6°C 93% Calm Calm -- 29.91 in1012.9 mb 0.00 in0.0 mm 0.00 in0.0 mm 0.00 in0.0 mm
03:40 AM 60.3°F15.7°C 58.3°F14.6°C 93% Calm Calm -- 29.91 in1012.9 mb 0.01 in0.3 mm 0.12 in3.0 mm 0.01 in0.3 mm
03:45 AM 60.3°F15.7°C 58.3°F14.6°C 93% Calm Calm -- 29.91 in1012.9 mb 0.10 in2.5 mm 1.08 in27.4 mm 0.10 in2.5 mm
03:50 AM 60.3°F15.7°C 58.3°F14.6°C 93% Calm Calm -- 29.90 in1012.5 mb 0.13 in3.3 mm 0.36 in9.1 mm 0.13 in3.3 mm
03:55 AM 60.2°F15.7°C 58.3°F14.6°C 93% Calm Calm -- 29.91 in1012.9 mb 0.13 in3.3 mm 0.00 in0.0 mm 0.13 in3.3 mm
04:00 AM 60.2°F15.7°C 58.3°F14.6°C 93% Calm Calm -- 29.91 in1012.9 mb 0.15 in3.8 mm 0.02 in0.5 mm 0.15 in3.8 mm
04:05 AM 60.1°F15.6°C 58.3°F14.6°C 94% Calm Calm -- 29.91 in1012.9 mb 0.15 in3.8 mm 0.00 in0.0 mm 0.15 in3.8 mm
04:10 AM 60.1°F15.6°C 58.3°F14.6°C 94% Calm Calm -- 29.91 in1012.9 mb 0.15 in3.8 mm 0.00 in0.0 mm 0.15 in3.8 mm
04:15 AM 60.1°F15.6°C 58.3°F14.6°C 94% Calm Calm -- 29.91 in1012.9 mb 0.15 in3.8 mm 0.00 in0.0 mm 0.15 in3.8 mm
04:20 AM 60.0°F15.6°C 58.3°F14.6°C 94% Calm Calm -- 29.91 in1012.9 mb 0.15 in3.8 mm 0.00 in0.0 mm 0.15 in3.8 mm
04:25 AM 59.9°F15.5°C 58.1°F14.5°C 94% Calm Calm -- 29.91 in1012.9 mb 0.15 in3.8 mm 0.00 in0.0 mm 0.15 in3.8 mm
04:30 AM 59.9°F15.5°C 58.1°F14.5°C 94% Calm Calm -- 29.90 in1012.5 mb 0.15 in3.8 mm 0.00 in0.0 mm 0.15 in3.8 mm
04:35 AM 59.8°F15.4°C 57.9°F14.4°C 94% Calm Calm -- 29.91 in1012.9 mb 0.15 in3.8 mm 0.00 in0.0 mm 0.15 in3.8 mm
04:40 AM 59.8°F15.4°C 57.9°F14.4°C 94% Calm Calm -- 29.91 in1012.9 mb 0.14 in3.6 mm 0.00 in0.0 mm 0.15 in3.8 mm
04:45 AM 59.7°F15.4°C 57.9°F14.4°C 94% Calm Calm -- 29.91 in1012.9 mb 0.05 in1.3 mm 0.00 in0.0 mm 0.15 in3.8 mm
04:50 AM 59.7°F15.4°C 57.9°F14.4°C 94% Calm Calm -- 29.91 in1012.9 mb 0.02 in0.5 mm 0.00 in0.0 mm 0.15 in3.8 mm
04:55 AM 59.7°F15.4°C 57.9°F14.4°C 94% Calm Calm -- 29.91 in1012.9 mb 0.02 in0.5 mm 0.00 in0.0 mm 0.15 in3.8 mm
05:00 AM 59.6°F15.3°C 57.7°F14.3°C 94% Calm Calm -- 29.91 in1012.9 mb 0.00 in0.0 mm 0.00 in0.0 mm 0.15 in3.8 mm
05:05 AM 59.6°F15.3°C 57.7°F14.3°C 94% Calm Calm -- 29.91 in1012.9 mb 0.00 in0.0 mm 0.00 in0.0 mm 0.15 in3.8 mm
05:10 AM 59.6°F15.3°C 58.1°F14.5°C 95% Calm Calm -- 29.92 in1013.2 mb 0.00 in0.0 mm 0.00 in0.0 mm 0.15 in3.8 mm
05:15 AM 59.6°F15.3°C 58.1°F14.5°C 95% Calm Calm -- 29.91 in1012.9 mb 0.00 in0.0 mm 0.00 in0.0 mm 0.15 in3.8 mm
05:20 AM 59.6°F15.3°C 58.1°F14.5°C 95% Calm Calm -- 29.92 in1013.2 mb 0.00 in0.0 mm 0.00 in0.0 mm 0.15 in3.8 mm
05:25 AM 59.5°F15.3°C 58.1°F14.5°C 95% Calm Calm -- 29.92 in1013.2 mb 0.00 in0.0 mm 0.00 in0.0 mm 0.15 in3.8 mm
05:30 AM 59.6°F15.3°C 58.1°F14.5°C 95% Calm Calm -- 29.92 in1013.2 mb 0.00 in0.0 mm 0.00 in0.0 mm 0.15 in3.8 mm
05:35 AM 59.6°F15.3°C 58.1°F14.5°C 95% Calm Calm -- 29.92 in1013.2 mb 0.00 in0.0 mm 0.00 in0.0 mm 0.15 in3.8 mm
05:40 AM 59.6°F15.3°C 58.1°F14.5°C 95% Calm Calm -- 29.93 in1013.5 mb 0.00 in0.0 mm 0.00 in0.0 mm 0.15 in3.8 mm
05:45 AM 59.6°F15.3°C 58.1°F14.5°C 95% Calm Calm -- 29.92 in1013.2 mb 0.00 in0.0 mm 0.00 in0.0 mm 0.15 in3.8 mm
05:50 AM 59.6°F15.3°C 58.1°F14.5°C 95% Calm Calm -- 29.92 in1013.2 mb 0.00 in0.0 mm 0.00 in0.0 mm 0.15 in3.8 mm
05:55 AM 59.5°F15.3°C 58.1°F14.5°C 95% Calm Calm -- 29.93 in1013.5 mb 0.00 in0.0 mm 0.00 in0.0 mm 0.15 in3.8 mm
06:00 AM 59.5°F15.3°C 58.1°F14.5°C 95% Calm Calm -- 29.93 in1013.5 mb 0.00 in0.0 mm 0.00 in0.0 mm 0.15 in3.8 mm
06:05 AM 59.5°F15.3°C 58.1°F14.5°C 95% Calm Calm -- 29.93 in1013.5 mb 0.04 in1.0 mm 0.48 in12.2 mm 0.19 in4.8 mm
06:10 AM 59.6°F15.3°C 58.1°F14.5°C 95% Calm Calm -- 29.92 in1013.2 mb 0.12 in3.0 mm 0.96 in24.4 mm 0.27 in6.9 mm
06:15 AM 59.6°F15.3°C 58.1°F14.5°C 95% Calm Calm -- 29.92 in1013.2 mb 0.13 in3.3 mm 0.12 in3.0 mm 0.28 in7.1 mm
06:20 AM 59.7°F15.4°C 58.3°F14.6°C 95% Calm Calm -- 29.93 in1013.5 mb 0.13 in3.3 mm 0.00 in0.0 mm 0.28 in7.1 mm
06:25 AM 59.7°F15.4°C 58.3°F14.6°C 95% Calm Calm -- 29.94 in1013.9 mb 0.13 in3.3 mm 0.00 in0.0 mm 0.28 in7.1 mm
06:30 AM 59.7°F15.4°C 58.3°F14.6°C 95% Calm Calm -- 29.95 in1014.2 mb 0.13 in3.3 mm 0.00 in0.0 mm 0.28 in7.1 mm
06:35 AM 59.8°F15.4°C 58.3°F14.6°C 95% Calm Calm -- 29.95 in1014.2 mb 0.13 in3.3 mm 0.00 in0.0 mm 0.28 in7.1 mm
06:40 AM 59.9°F15.5°C 58.5°F14.7°C 95% Calm Calm -- 29.95 in1014.2 mb 0.13 in3.3 mm 0.00 in0.0 mm 0.28 in7.1 mm
06:45 AM 60.0°F15.6°C 58.6°F14.8°C 95% Calm Calm -- 29.96 in1014.6 mb 0.13 in3.3 mm 0.00 in0.0 mm 0.28 in7.1 mm
06:50 AM 60.0°F15.6°C 58.6°F14.8°C 95% Calm Calm -- 29.96 in1014.6 mb 0.13 in3.3 mm 0.00 in0.0 mm 0.28 in7.1 mm
06:55 AM 60.1°F15.6°C 58.6°F14.8°C 95% Calm Calm -- 29.96 in1014.6 mb 0.13 in3.3 mm 0.00 in0.0 mm 0.28 in7.1 mm
07:00 AM 60.1°F15.6°C 58.6°F14.8°C 95% Calm Calm -- 29.97 in1014.9 mb 0.13 in3.3 mm 0.00 in0.0 mm 0.28 in7.1 mm
07:05 AM 60.1°F15.6°C 58.6°F14.8°C 95% Calm Calm -- 29.96 in1014.6 mb 0.09 in2.3 mm 0.00 in0.0 mm 0.28 in7.1 mm
07:10 AM 60.1°F15.6°C 58.6°F14.8°C 95% Calm Calm -- 29.96 in1014.6 mb 0.02 in0.5 mm 0.00 in0.0 mm 0.29 in7.4 mm
07:15 AM 60.2°F15.7°C 58.8°F14.9°C 95% Calm Calm -- 29.96 in1014.6 mb 0.01 in0.3 mm 0.00 in0.0 mm 0.29 in7.4 mm
07:20 AM 60.2°F15.7°C 58.8°F14.9°C 95% Calm Calm -- 29.96 in1014.6 mb 0.01 in0.3 mm 0.00 in0.0 mm 0.29 in7.4 mm
07:25 AM 60.2°F15.7°C 58.8°F14.9°C 95% Calm Calm -- 29.96 in1014.6 mb 0.01 in0.3 mm 0.00 in0.0 mm 0.29 in7.4 mm
07:30 AM 60.3°F15.7°C 58.8°F14.9°C 95% Calm Calm -- 29.96 in1014.6 mb 0.01 in0.3 mm 0.00 in0.0 mm 0.29 in7.4 mm
07:35 AM 60.3°F15.7°C 58.8°F14.9°C 95% Calm Calm -- 29.96 in1014.6 mb 0.01 in0.3 mm 0.00 in0.0 mm 0.29 in7.4 mm
07:40 AM 60.4°F15.8°C 59.0°F15.0°C 95% Calm Calm -- 29.96 in1014.6 mb 0.01 in0.3 mm 0.00 in0.0 mm 0.29 in7.4 mm
07:45 AM 60.4°F15.8°C 59.0°F15.0°C 95% Calm Calm -- 29.97 in1014.9 mb 0.01 in0.3 mm 0.00 in0.0 mm 0.29 in7.4 mm
07:50 AM 60.4°F15.8°C 59.0°F15.0°C 95% Calm Calm -- 29.97 in1014.9 mb 0.01 in0.3 mm 0.00 in0.0 mm 0.29 in7.4 mm
07:55 AM 60.4°F15.8°C 59.0°F15.0°C 95% Calm Calm -- 29.97 in1014.9 mb 0.01 in0.3 mm 0.00 in0.0 mm 0.29 in7.4 mm
08:00 AM 60.5°F15.8°C 59.0°F15.0°C 95% Calm Calm -- 29.97 in1014.9 mb 0.01 in0.3 mm 0.00 in0.0 mm 0.29 in7.4 mm
08:05 AM 60.5°F15.8°C 59.0°F15.0°C 95% Calm Calm -- 29.97 in1014.9 mb 0.01 in0.3 mm 0.00 in0.0 mm 0.29 in7.4 mm
08:10 AM 60.6°F15.9°C 59.2°F15.1°C 95% Calm Calm -- 29.96 in1014.6 mb 0.00 in0.0 mm 0.00 in0.0 mm 0.29 in7.4 mm
08:15 AM 60.8°F16.0°C 59.4°F15.2°C 95% Calm Calm -- 29.95 in1014.2 mb 0.00 in0.0 mm 0.00 in0.0 mm 0.29 in7.4 mm
08:20 AM 60.8°F16.0°C 59.4°F15.2°C 95% Calm Calm -- 29.95 in1014.2 mb 0.00 in0.0 mm 0.00 in0.0 mm 0.29 in7.4 mm
08:25 AM 60.8°F16.0°C 59.4°F15.2°C 95% Calm Calm -- 29.96 in1014.6 mb 0.00 in0.0 mm 0.00 in0.0 mm 0.29 in7.4 mm
08:30 AM 60.9°F16.1°C 59.5°F15.3°C 95% Calm Calm -- 29.95 in1014.2 mb 0.00 in0.0 mm 0.00 in0.0 mm 0.29 in7.4 mm
08:35 AM 61.0°F16.1°C 59.5°F15.3°C 95% Calm Calm -- 29.95 in1014.2 mb 0.00 in0.0 mm 0.00 in0.0 mm 0.29 in7.4 mm
08:40 AM 61.0°F16.1°C 59.5°F15.3°C 95% Calm Calm -- 29.95 in1014.2 mb 0.00 in0.0 mm 0.00 in0.0 mm 0.29 in7.4 mm
08:45 AM 61.0°F16.1°C 59.5°F15.3°C 95% Calm Calm -- 29.95 in1014.2 mb 0.00 in0.0 mm 0.00 in0.0 mm 0.29 in7.4 mm
08:50 AM 61.0°F16.1°C 59.5°F15.3°C 95% Calm Calm -- 29.96 in1014.6 mb 0.00 in0.0 mm 0.00 in0.0 mm 0.29 in7.4 mm
08:55 AM 61.0°F16.1°C 59.5°F15.3°C 95% Calm Calm -- 29.96 in1014.6 mb 0.00 in0.0 mm 0.00 in0.0 mm 0.29 in7.4 mm
09:00 AM 61.0°F16.1°C 59.5°F15.3°C 95% Calm Calm -- 29.96 in1014.6 mb 0.00 in0.0 mm 0.00 in0.0 mm 0.29 in7.4 mm
09:05 AM 61.0°F16.1°C 59.5°F15.3°C 95% Calm Calm -- 29.97 in1014.9 mb 0.00 in0.0 mm 0.00 in0.0 mm 0.29 in7.4 mm
09:10 AM 61.1°F16.2°C 59.7°F15.4°C 95% Calm Calm -- 29.98 in1015.2 mb 0.00 in0.0 mm 0.00 in0.0 mm 0.29 in7.4 mm
09:15 AM 61.4°F16.3°C 59.9°F15.5°C 95% Calm Calm -- 29.98 in1015.2 mb 0.00 in0.0 mm 0.00 in0.0 mm 0.29 in7.4 mm
09:20 AM 61.5°F16.4°C 60.1°F15.6°C 95% Calm Calm -- 29.98 in1015.2 mb 0.00 in0.0 mm 0.00 in0.0 mm 0.29 in7.4 mm
09:25 AM 61.4°F16.3°C 59.9°F15.5°C 95% Calm Calm -- 29.98 in1015.2 mb 0.00 in0.0 mm 0.00 in0.0 mm 0.29 in7.4 mm
09:30 AM 61.6°F16.4°C 60.1°F15.6°C 95% Calm Calm -- 29.99 in1015.6 mb 0.00 in0.0 mm 0.00 in0.0 mm 0.29 in7.4 mm
09:35 AM 61.5°F16.4°C 60.1°F15.6°C 95% Calm Calm -- 29.99 in1015.6 mb 0.00 in0.0 mm 0.00 in0.0 mm 0.29 in7.4 mm
09:40 AM 61.1°F16.2°C 59.7°F15.4°C 95% Calm Calm -- 29.99 in1015.6 mb 0.00 in0.0 mm 0.00 in0.0 mm 0.29 in7.4 mm
09:45 AM 60.8°F16.0°C 59.4°F15.2°C 95% Calm Calm -- 30.00 in1015.9 mb 0.00 in0.0 mm 0.00 in0.0 mm 0.29 in7.4 mm
09:50 AM 60.5°F15.8°C 59.0°F15.0°C 95% Calm Calm -- 29.99 in1015.6 mb 0.00 in0.0 mm 0.00 in0.0 mm 0.29 in7.4 mm
09:55 AM 60.3°F15.7°C 58.8°F14.9°C 95% Calm Calm -- 30.00 in1015.9 mb 0.01 in0.3 mm 0.12 in3.0 mm 0.30 in7.6 mm
10:00 AM 60.1°F15.6°C 58.6°F14.8°C 95% Calm Calm -- 29.99 in1015.6 mb 0.01 in0.3 mm 0.00 in0.0 mm 0.30 in7.6 mm
10:05 AM 59.7°F15.4°C 58.3°F14.6°C 95% Calm Calm -- 29.99 in1015.6 mb 0.01 in0.3 mm 0.00 in0.0 mm 0.30 in7.6 mm
10:10 AM 59.4°F15.2°C 57.9°F14.4°C 95% Calm Calm -- 30.00 in1015.9 mb 0.01 in0.3 mm 0.00 in0.0 mm 0.30 in7.6 mm
10:15 AM 59.0°F15.0°C 57.6°F14.2°C 95% Calm Calm -- 30.00 in1015.9 mb 0.01 in0.3 mm 0.00 in0.0 mm 0.30 in7.6 mm
10:20 AM 58.5°F14.7°C 57.0°F13.9°C 95% Calm Calm -- 30.00 in1015.9 mb 0.01 in0.3 mm 0.00 in0.0 mm 0.30 in7.6 mm
10:25 AM 58.5°F14.7°C 57.0°F13.9°C 95% Calm Calm -- 30.00 in1015.9 mb 0.01 in0.3 mm 0.00 in0.0 mm 0.30 in7.6 mm
10:30 AM 58.4°F14.7°C 57.0°F13.9°C 95% Calm Calm -- 30.01 in1016.3 mb 0.01 in0.3 mm 0.00 in0.0 mm 0.30 in7.6 mm
10:35 AM 58.0°F14.4°C 56.5°F13.6°C 95% Calm Calm -- 30.01 in1016.3 mb 0.01 in0.3 mm 0.00 in0.0 mm 0.30 in7.6 mm
10:40 AM 57.7°F14.3°C 56.3°F13.5°C 95% Calm Calm -- 30.01 in1016.3 mb 0.01 in0.3 mm 0.00 in0.0 mm 0.30 in7.6 mm
10:45 AM 57.4°F14.1°C 55.9°F13.3°C 95% Calm Calm -- 30.01 in1016.3 mb 0.01 in0.3 mm 0.00 in0.0 mm 0.30 in7.6 mm
10:50 AM 57.0°F13.9°C 55.6°F13.1°C 95% Calm Calm -- 30.01 in1016.3 mb 0.01 in0.3 mm 0.00 in0.0 mm 0.30 in7.6 mm
10:55 AM 56.8°F13.8°C 55.4°F13.0°C 95% Calm Calm -- 30.01 in1016.3 mb 0.00 in0.0 mm 0.00 in0.0 mm 0.30 in7.6 mm
11:00 AM 56.7°F13.7°C 55.2°F12.9°C 95% Calm Calm -- 30.02 in1016.6 mb 0.00 in0.0 mm 0.00 in0.0 mm 0.30 in7.6 mm
11:05 AM 56.6°F13.7°C 55.2°F12.9°C 95% Calm Calm -- 30.02 in1016.6 mb 0.00 in0.0 mm 0.00 in0.0 mm 0.30 in7.6 mm
11:10 AM 56.5°F13.6°C 55.0°F12.8°C 95% Calm Calm -- 30.02 in1016.6 mb 0.00 in0.0 mm 0.00 in0.0 mm 0.30 in7.6 mm
11:15 AM 56.4°F13.6°C 55.0°F12.8°C 95% Calm Calm -- 30.03 in1016.9 mb 0.00 in0.0 mm 0.00 in0.0 mm 0.30 in7.6 mm
11:20 AM 56.0°F13.3°C 54.5°F12.5°C 95% Calm Calm -- 30.03 in1016.9 mb 0.00 in0.0 mm 0.00 in0.0 mm 0.30 in7.6 mm
11:25 AM 56.0°F13.3°C 54.5°F12.5°C 95% Calm Calm -- 30.04 in1017.3 mb 0.00 in0.0 mm 0.00 in0.0 mm 0.30 in7.6 mm
11:30 AM 56.0°F13.3°C 54.5°F12.5°C 95% Calm Calm -- 30.04 in1017.3 mb 0.01 in0.3 mm 0.12 in3.0 mm 0.31 in7.9 mm
11:35 AM 56.0°F13.3°C 54.5°F12.5°C 95% Calm Calm -- 30.03 in1016.9 mb 0.02 in0.5 mm 0.12 in3.0 mm 0.32 in8.1 mm
11:40 AM 56.0°F13.3°C 54.5°F12.5°C 95% Calm Calm -- 30.03 in1016.9 mb 0.02 in0.5 mm 0.00 in0.0 mm 0.32 in8.1 mm
11:45 AM 56.1°F13.4°C 54.7°F12.6°C 95% Calm Calm -- 30.03 in1016.9 mb 0.02 in0.5 mm 0.00 in0.0 mm 0.32 in8.1 mm
11:50 AM 56.6°F13.7°C 55.2°F12.9°C 95% Calm Calm -- 30.02 in1016.6 mb 0.02 in0.5 mm 0.00 in0.0 mm 0.32 in8.1 mm
11:55 AM 57.0°F13.9°C 55.6°F13.1°C 95% Calm Calm -- 30.02 in1016.6 mb 0.02 in0.5 mm 0.00 in0.0 mm 0.32 in8.1 mm
12:00 PM 57.2°F14.0°C 55.8°F13.2°C 95% Calm Calm -- 30.01 in1016.3 mb 0.02 in0.5 mm 0.00 in0.0 mm 0.32 in8.1 mm
12:05 PM 56.8°F13.8°C 55.4°F13.0°C 95% Calm Calm -- 30.01 in1016.3 mb 0.02 in0.5 mm 0.00 in0.0 mm 0.32 in8.1 mm
12:10 PM 56.8°F13.8°C 55.4°F13.0°C 95% Calm Calm -- 30.01 in1016.3 mb 0.02 in0.5 mm 0.00 in0.0 mm 0.32 in8.1 mm
12:15 PM 57.0°F13.9°C 55.6°F13.1°C 95% Calm Calm -- 30.00 in1015.9 mb 0.02 in0.5 mm 0.00 in0.0 mm 0.32 in8.1 mm
12:20 PM 57.5°F14.2°C 56.1°F13.4°C 95% Calm Calm -- 30.00 in1015.9 mb 0.02 in0.5 mm 0.00 in0.0 mm 0.32 in8.1 mm
12:25 PM 57.2°F14.0°C 55.8°F13.2°C 95% Calm Calm -- 29.99 in1015.6 mb 0.02 in0.5 mm 0.00 in0.0 mm 0.32 in8.1 mm
12:30 PM 57.2°F14.0°C 55.8°F13.2°C 95% Calm Calm -- 29.99 in1015.6 mb 0.01 in0.3 mm 0.00 in0.0 mm 0.32 in8.1 mm
12:35 PM 57.4°F14.1°C 55.9°F13.3°C 95% Calm Calm -- 29.99 in1015.6 mb 0.00 in0.0 mm 0.00 in0.0 mm 0.32 in8.1 mm
12:40 PM 57.4°F14.1°C 55.9°F13.3°C 95% Calm Calm -- 29.99 in1015.6 mb 0.00 in0.0 mm 0.00 in0.0 mm 0.32 in8.1 mm
12:45 PM 57.5°F14.2°C 56.1°F13.4°C 95% Calm Calm -- 29.99 in1015.6 mb 0.00 in0.0 mm 0.00 in0.0 mm 0.32 in8.1 mm
12:50 PM 57.8°F14.3°C 56.7°F13.7°C 96% Calm Calm -- 30.00 in1015.9 mb 0.00 in0.0 mm 0.00 in0.0 mm 0.32 in8.1 mm
12:55 PM 57.8°F14.3°C 56.7°F13.7°C 96% Calm Calm -- 29.99 in1015.6 mb 0.00 in0.0 mm 0.00 in0.0 mm 0.32 in8.1 mm
01:00 PM 57.9°F14.4°C 56.8°F13.8°C 96% Calm Calm -- 29.99 in1015.6 mb 0.00 in0.0 mm 0.00 in0.0 mm 0.32 in8.1 mm
01:05 PM 57.9°F14.4°C 56.8°F13.8°C 96% Calm Calm -- 30.00 in1015.9 mb 0.00 in0.0 mm 0.00 in0.0 mm 0.32 in8.1 mm
01:10 PM 57.9°F14.4°C 56.8°F13.8°C 96% Calm Calm -- 29.99 in1015.6 mb 0.00 in0.0 mm 0.00 in0.0 mm 0.32 in8.1 mm
01:15 PM 58.0°F14.4°C 56.8°F13.8°C 96% Calm Calm -- 30.00 in1015.9 mb 0.00 in0.0 mm 0.00 in0.0 mm 0.32 in8.1 mm
01:20 PM 57.9°F14.4°C 56.8°F13.8°C 96% Calm Calm -- 30.00 in1015.9 mb 0.00 in0.0 mm 0.00 in0.0 mm 0.32 in8.1 mm
01:25 PM 57.9°F14.4°C 56.8°F13.8°C 96% Calm Calm -- 30.00 in1015.9 mb 0.00 in0.0 mm 0.00 in0.0 mm 0.32 in8.1 mm
01:30 PM 58.2°F14.6°C 56.8°F13.8°C 95% Calm Calm -- 30.00 in1015.9 mb 0.00 in0.0 mm 0.00 in0.0 mm 0.32 in8.1 mm
01:35 PM 58.2°F14.6°C 56.8°F13.8°C 95% Calm Calm -- 30.00 in1015.9 mb 0.00 in0.0 mm 0.00 in0.0 mm 0.32 in8.1 mm
01:40 PM 58.3°F14.6°C 56.8°F13.8°C 95% Calm Calm -- 30.00 in1015.9 mb 0.00 in0.0 mm 0.00 in0.0 mm 0.32 in8.1 mm
01:45 PM 58.3°F14.6°C 56.8°F13.8°C 95% Calm Calm -- 30.00 in1015.9 mb 0.00 in0.0 mm 0.00 in0.0 mm 0.32 in8.1 mm
01:50 PM 58.3°F14.6°C 56.8°F13.8°C 95% Calm Calm -- 30.00 in1015.9 mb 0.00 in0.0 mm 0.00 in0.0 mm 0.32 in8.1 mm
01:55 PM 58.0°F14.4°C 56.5°F13.6°C 95% Calm Calm -- 30.01 in1016.3 mb 0.00 in0.0 mm 0.00 in0.0 mm 0.32 in8.1 mm
02:00 PM 58.1°F14.5°C 57.0°F13.9°C 96% Calm Calm -- 30.01 in1016.3 mb 0.00 in0.0 mm 0.00 in0.0 mm 0.32 in8.1 mm
02:05 PM 58.1°F14.5°C 56.7°F13.7°C 95% Calm Calm -- 30.01 in1016.3 mb 0.00 in0.0 mm 0.00 in0.0 mm 0.32 in8.1 mm
02:10 PM 58.0°F14.4°C 56.8°F13.8°C 96% Calm Calm -- 30.01 in1016.3 mb 0.00 in0.0 mm 0.00 in0.0 mm 0.32 in8.1 mm
02:15 PM 58.1°F14.5°C 56.7°F13.7°C 95% Calm Calm -- 30.01 in1016.3 mb 0.00 in0.0 mm 0.00 in0.0 mm 0.32 in8.1 mm
02:20 PM 58.2°F14.6°C 56.8°F13.8°C 95% Calm Calm -- 30.01 in1016.3 mb 0.00 in0.0 mm 0.00 in0.0 mm 0.32 in8.1 mm
02:25 PM 58.2°F14.6°C 56.8°F13.8°C 95% Calm Calm -- 30.01 in1016.3 mb 0.00 in0.0 mm 0.00 in0.0 mm 0.32 in8.1 mm
02:30 PM 58.1°F14.5°C 56.7°F13.7°C 95% Calm Calm -- 30.01 in1016.3 mb 0.00 in0.0 mm 0.00 in0.0 mm 0.32 in8.1 mm
02:35 PM 57.9°F14.4°C 56.8°F13.8°C 96% Calm Calm -- 30.01 in1016.3 mb 0.00 in0.0 mm 0.00 in0.0 mm 0.32 in8.1 mm
02:40 PM 57.5°F14.2°C 56.1°F13.4°C 95% Calm Calm -- 30.01 in1016.3 mb 0.00 in0.0 mm 0.00 in0.0 mm 0.32 in8.1 mm
02:45 PM 57.2°F14.0°C 55.8°F13.2°C 95% Calm Calm -- 30.01 in1016.3 mb 0.00 in0.0 mm 0.00 in0.0 mm 0.32 in8.1 mm
02:50 PM 56.9°F13.8°C 55.4°F13.0°C 95% Calm Calm -- 30.01 in1016.3 mb 0.00 in0.0 mm 0.00 in0.0 mm 0.32 in8.1 mm
02:55 PM 56.6°F13.7°C 55.2°F12.9°C 95% Calm Calm -- 30.02 in1016.6 mb 0.00 in0.0 mm 0.00 in0.0 mm 0.32 in8.1 mm
03:00 PM 56.2°F13.4°C 54.7°F12.6°C 95% Calm Calm -- 30.02 in1016.6 mb 0.00 in0.0 mm 0.00 in0.0 mm 0.32 in8.1 mm
03:05 PM 56.0°F13.3°C 54.5°F12.5°C 95% Calm Calm -- 30.01 in1016.3 mb 0.00 in0.0 mm 0.00 in0.0 mm 0.32 in8.1 mm
03:10 PM 55.9°F13.3°C 54.5°F12.5°C 95% Calm Calm -- 30.01 in1016.3 mb 0.00 in0.0 mm 0.00 in0.0 mm 0.32 in8.1 mm
03:15 PM 55.6°F13.1°C 54.1°F12.3°C 95% Calm Calm -- 30.00 in1015.9 mb 0.00 in0.0 mm 0.00 in0.0 mm 0.32 in8.1 mm
03:20 PM 55.5°F13.1°C 54.1°F12.3°C 95% Calm Calm -- 30.00 in1015.9 mb 0.00 in0.0 mm 0.00 in0.0 mm 0.32 in8.1 mm
03:25 PM 55.5°F13.1°C 54.1°F12.3°C 95% Calm Calm -- 30.00 in1015.9 mb 0.00 in0.0 mm 0.00 in0.0 mm 0.32 in8.1 mm
03:30 PM 55.3°F12.9°C 53.8°F12.1°C 95% Calm Calm -- 30.00 in1015.9 mb 0.00 in0.0 mm 0.00 in0.0 mm 0.32 in8.1 mm
03:35 PM 55.1°F12.8°C 53.6°F12.0°C 95% Calm Calm -- 30.00 in1015.9 mb 0.00 in0.0 mm 0.00 in0.0 mm 0.32 in8.1 mm
03:40 PM 54.9°F12.7°C 53.4°F11.9°C 95% Calm Calm -- 30.00 in1015.9 mb 0.00 in0.0 mm 0.00 in0.0 mm 0.32 in8.1 mm
03:45 PM 54.7°F12.6°C 53.2°F11.8°C 95% Calm Calm -- 29.99 in1015.6 mb 0.00 in0.0 mm 0.00 in0.0 mm 0.32 in8.1 mm
03:50 PM 54.4°F12.4°C 52.9°F11.6°C 95% Calm Calm -- 29.99 in1015.6 mb 0.00 in0.0 mm 0.00 in0.0 mm 0.32 in8.1 mm
03:55 PM 54.3°F12.4°C 52.9°F11.6°C 95% Calm Calm -- 29.99 in1015.6 mb 0.00 in0.0 mm 0.00 in0.0 mm 0.32 in8.1 mm
04:00 PM 54.1°F12.3°C 52.7°F11.5°C 95% Calm Calm -- 29.99 in1015.6 mb 0.00 in0.0 mm 0.00 in0.0 mm 0.32 in8.1 mm
04:05 PM 54.1°F12.3°C 52.7°F11.5°C 95% Calm Calm -- 29.99 in1015.6 mb 0.00 in0.0 mm 0.00 in0.0 mm 0.32 in8.1 mm
04:10 PM 54.1°F12.3°C 52.7°F11.5°C 95% Calm Calm -- 29.99 in1015.6 mb 0.00 in0.0 mm 0.00 in0.0 mm 0.32 in8.1 mm
04:15 PM 54.0°F12.2°C 52.5°F11.4°C 95% Calm Calm -- 29.99 in1015.6 mb 0.00 in0.0 mm 0.00 in0.0 mm 0.32 in8.1 mm
04:20 PM 53.9°F12.2°C 52.5°F11.4°C 95% Calm Calm -- 29.99 in1015.6 mb 0.00 in0.0 mm 0.00 in0.0 mm 0.32 in8.1 mm
04:25 PM 53.8°F12.1°C 52.3°F11.3°C 95% Calm Calm -- 29.99 in1015.6 mb 0.00 in0.0 mm 0.00 in0.0 mm 0.32 in8.1 mm
04:30 PM 53.7°F12.1°C 52.3°F11.3°C 95% Calm Calm -- 29.99 in1015.6 mb 0.00 in0.0 mm 0.00 in0.0 mm 0.32 in8.1 mm
04:35 PM 53.6°F12.0°C 52.2°F11.2°C 95% Calm Calm -- 29.99 in1015.6 mb 0.00 in0.0 mm 0.00 in0.0 mm 0.32 in8.1 mm
04:40 PM 53.4°F11.9°C 52.0°F11.1°C 95% Calm Calm -- 29.99 in1015.6 mb 0.00 in0.0 mm 0.00 in0.0 mm 0.32 in8.1 mm
04:45 PM 53.2°F11.8°C 51.8°F11.0°C 95% Calm Calm -- 29.99 in1015.6 mb 0.00 in0.0 mm 0.00 in0.0 mm 0.32 in8.1 mm
04:50 PM 53.3°F11.8°C 51.8°F11.0°C 95% Calm Calm -- 29.99 in1015.6 mb 0.00 in0.0 mm 0.00 in0.0 mm 0.32 in8.1 mm
04:55 PM 53.3°F11.8°C 51.8°F11.0°C 95% Calm Calm -- 29.99 in1015.6 mb 0.00 in0.0 mm 0.00 in0.0 mm 0.32 in8.1 mm
05:00 PM 53.3°F11.8°C 51.8°F11.0°C 95% Calm Calm -- 29.99 in1015.6 mb 0.00 in0.0 mm 0.00 in0.0 mm 0.32 in8.1 mm
05:05 PM 53.4°F11.9°C 52.0°F11.1°C 95% Calm Calm -- 29.99 in1015.6 mb 0.00 in0.0 mm 0.00 in0.0 mm 0.32 in8.1 mm
05:10 PM 53.3°F11.8°C 51.8°F11.0°C 95% Calm Calm -- 29.99 in1015.6 mb 0.00 in0.0 mm 0.00 in0.0 mm 0.32 in8.1 mm
05:15 PM 53.4°F11.9°C 52.0°F11.1°C 95% Calm Calm -- 29.99 in1015.6 mb 0.00 in0.0 mm 0.00 in0.0 mm 0.32 in8.1 mm
05:20 PM 53.3°F11.8°C 51.8°F11.0°C 95% Calm Calm -- 30.00 in1015.9 mb 0.00 in0.0 mm 0.00 in0.0 mm 0.32 in8.1 mm
05:25 PM 53.4°F11.9°C 52.0°F11.1°C 95% Calm Calm -- 30.00 in1015.9 mb 0.00 in0.0 mm 0.00 in0.0 mm 0.32 in8.1 mm
05:30 PM 53.3°F11.8°C 51.8°F11.0°C 95% Calm Calm -- 30.00 in1015.9 mb 0.00 in0.0 mm 0.00 in0.0 mm 0.32 in8.1 mm
05:35 PM 53.4°F11.9°C 52.3°F11.3°C 96% Calm Calm -- 30.00 in1015.9 mb 0.00 in0.0 mm 0.00 in0.0 mm 0.32 in8.1 mm
05:40 PM 53.4°F11.9°C 52.0°F11.1°C 95% Calm Calm -- 30.00 in1015.9 mb 0.00 in0.0 mm 0.00 in0.0 mm 0.32 in8.1 mm
05:45 PM 53.5°F11.9°C 52.3°F11.3°C 96% Calm Calm -- 30.00 in1015.9 mb 0.00 in0.0 mm 0.00 in0.0 mm 0.32 in8.1 mm
05:50 PM 53.5°F11.9°C 52.0°F11.1°C 95% Calm Calm -- 30.00 in1015.9 mb 0.00 in0.0 mm 0.00 in0.0 mm 0.32 in8.1 mm
05:55 PM 53.4°F11.9°C 52.0°F11.1°C 95% Calm Calm -- 30.00 in1015.9 mb 0.00 in0.0 mm 0.00 in0.0 mm 0.32 in8.1 mm
06:00 PM 53.4°F11.9°C 52.0°F11.1°C 95% Calm Calm -- 30.00 in1015.9 mb 0.00 in0.0 mm 0.00 in0.0 mm 0.32 in8.1 mm
06:05 PM 53.5°F11.9°C 52.0°F11.1°C 95% Calm Calm -- 30.00 in1015.9 mb 0.00 in0.0 mm 0.00 in0.0 mm 0.32 in8.1 mm
06:10 PM 53.7°F12.1°C 52.3°F11.3°C 95% Calm Calm -- 30.00 in1015.9 mb 0.00 in0.0 mm 0.00 in0.0 mm 0.32 in8.1 mm
06:15 PM 53.9°F12.2°C 52.5°F11.4°C 95% Calm Calm -- 29.99 in1015.6 mb 0.00 in0.0 mm 0.00 in0.0 mm 0.32 in8.1 mm
06:20 PM 54.1°F12.3°C 52.7°F11.5°C 95% Calm Calm -- 29.99 in1015.6 mb 0.00 in0.0 mm 0.00 in0.0 mm 0.32 in8.1 mm
06:26 PM 54.2°F12.3°C 52.7°F11.5°C 95% Calm Calm -- 29.99 in1015.6 mb 0.00 in0.0 mm 0.00 in0.0 mm 0.32 in8.1 mm
06:30 PM 54.2°F12.3°C 52.7°F11.5°C 95% Calm Calm -- 29.99 in1015.6 mb 0.00 in0.0 mm 0.00 in0.0 mm 0.32 in8.1 mm
06:35 PM 54.2°F12.3°C 52.7°F11.5°C 95% Calm Calm -- 29.98 in1015.2 mb 0.00 in0.0 mm 0.00 in0.0 mm 0.32 in8.1 mm
06:40 PM 54.2°F12.3°C 52.7°F11.5°C 95% Calm Calm -- 29.99 in1015.6 mb 0.00 in0.0 mm 0.00 in0.0 mm 0.32 in8.1 mm
06:45 PM 54.2°F12.3°C 52.7°F11.5°C 95% Calm Calm -- 29.98 in1015.2 mb 0.00 in0.0 mm 0.00 in0.0 mm 0.32 in8.1 mm
06:50 PM 54.2°F12.3°C 52.7°F11.5°C 95% Calm Calm -- 29.99 in1015.6 mb 0.00 in0.0 mm 0.00 in0.0 mm 0.32 in8.1 mm
06:55 PM 54.1°F12.3°C 52.7°F11.5°C 95% Calm Calm -- 29.98 in1015.2 mb 0.00 in0.0 mm 0.00 in0.0 mm 0.32 in8.1 mm
07:00 PM 54.1°F12.3°C 52.7°F11.5°C 95% Calm Calm -- 29.98 in1015.2 mb 0.00 in0.0 mm 0.00 in0.0 mm 0.32 in8.1 mm
07:05 PM 54.1°F12.3°C 52.7°F11.5°C 95% Calm Calm -- 29.99 in1015.6 mb 0.00 in0.0 mm 0.00 in0.0 mm 0.32 in8.1 mm
07:10 PM 54.1°F12.3°C 52.7°F11.5°C 95% Calm Calm -- 29.99 in1015.6 mb 0.00 in0.0 mm 0.00 in0.0 mm 0.32 in8.1 mm
07:15 PM 54.1°F12.3°C 52.7°F11.5°C 95% Calm Calm -- 29.99 in1015.6 mb 0.00 in0.0 mm 0.00 in0.0 mm 0.32 in8.1 mm
07:20 PM 54.1°F12.3°C 52.7°F11.5°C 95% Calm Calm -- 29.99 in1015.6 mb 0.00 in0.0 mm 0.00 in0.0 mm 0.32 in8.1 mm
07:25 PM 54.1°F12.3°C 52.7°F11.5°C 95% Calm Calm -- 30.00 in1015.9 mb 0.00 in0.0 mm 0.00 in0.0 mm 0.32 in8.1 mm
07:30 PM 54.1°F12.3°C 52.7°F11.5°C 95% Calm Calm -- 29.99 in1015.6 mb 0.00 in0.0 mm 0.00 in0.0 mm 0.32 in8.1 mm
07:35 PM 54.0°F12.2°C 52.5°F11.4°C 95% Calm Calm -- 29.99 in1015.6 mb 0.00 in0.0 mm 0.00 in0.0 mm 0.32 in8.1 mm
07:40 PM 53.9°F12.2°C 52.5°F11.4°C 95% Calm Calm -- 29.99 in1015.6 mb 0.00 in0.0 mm 0.00 in0.0 mm 0.32 in8.1 mm
07:45 PM 53.9°F12.2°C 52.5°F11.4°C 95% Calm Calm -- 29.99 in1015.6 mb 0.00 in0.0 mm 0.00 in0.0 mm 0.32 in8.1 mm
07:50 PM 53.9°F12.2°C 52.5°F11.4°C 95% Calm Calm -- 30.00 in1015.9 mb 0.00 in0.0 mm 0.00 in0.0 mm 0.32 in8.1 mm
07:55 PM 53.9°F12.2°C 52.5°F11.4°C 95% Calm Calm -- 29.99 in1015.6 mb 0.00 in0.0 mm 0.00 in0.0 mm 0.32 in8.1 mm
08:00 PM 53.9°F12.2°C 52.5°F11.4°C 95% Calm Calm -- 30.00 in1015.9 mb 0.00 in0.0 mm 0.00 in0.0 mm 0.32 in8.1 mm
08:05 PM 53.8°F12.1°C 52.3°F11.3°C 95% Calm Calm -- 30.00 in1015.9 mb 0.00 in0.0 mm 0.00 in0.0 mm 0.32 in8.1 mm
08:10 PM 53.9°F12.2°C 52.5°F11.4°C 95% Calm Calm -- 30.00 in1015.9 mb 0.00 in0.0 mm 0.00 in0.0 mm 0.32 in8.1 mm
08:15 PM 53.9°F12.2°C 52.5°F11.4°C 95% Calm Calm -- 30.00 in1015.9 mb 0.00 in0.0 mm 0.00 in0.0 mm 0.32 in8.1 mm
08:20 PM 53.9°F12.2°C 52.5°F11.4°C 95% Calm Calm -- 30.00 in1015.9 mb 0.00 in0.0 mm 0.00 in0.0 mm 0.32 in8.1 mm
08:25 PM 53.8°F12.1°C 52.3°F11.3°C 95% Calm Calm -- 30.00 in1015.9 mb 0.00 in0.0 mm 0.00 in0.0 mm 0.32 in8.1 mm
08:30 PM 53.8°F12.1°C 52.3°F11.3°C 95% Calm Calm -- 30.00 in1015.9 mb 0.00 in0.0 mm 0.00 in0.0 mm 0.32 in8.1 mm
08:35 PM 53.8°F12.1°C 52.2°F11.2°C 94% Calm Calm -- 30.00 in1015.9 mb 0.00 in0.0 mm 0.00 in0.0 mm 0.32 in8.1 mm
08:40 PM 53.8°F12.1°C 52.2°F11.2°C 94% Calm Calm -- 30.00 in1015.9 mb 0.00 in0.0 mm 0.00 in0.0 mm 0.32 in8.1 mm
08:45 PM 53.8°F12.1°C 52.2°F11.2°C 94% Calm Calm -- 30.00 in1015.9 mb 0.00 in0.0 mm 0.00 in0.0 mm 0.32 in8.1 mm
08:50 PM 53.7°F12.1°C 52.2°F11.2°C 94% Calm Calm -- 30.00 in1015.9 mb 0.00 in0.0 mm 0.00 in0.0 mm 0.32 in8.1 mm
08:55 PM 53.7°F12.1°C 52.3°F11.3°C 95% Calm Calm -- 30.00 in1015.9 mb 0.00 in0.0 mm 0.00 in0.0 mm 0.32 in8.1 mm
09:00 PM 53.7°F12.1°C 52.3°F11.3°C 95% Calm Calm -- 30.01 in1016.3 mb 0.00 in0.0 mm 0.00 in0.0 mm 0.32 in8.1 mm
09:05 PM 53.7°F12.1°C 52.3°F11.3°C 95% Calm Calm -- 30.01 in1016.3 mb 0.00 in0.0 mm 0.00 in0.0 mm 0.32 in8.1 mm
09:10 PM 53.7°F12.1°C 52.3°F11.3°C 95% Calm Calm -- 30.02 in1016.6 mb 0.00 in0.0 mm 0.00 in0.0 mm 0.32 in8.1 mm
09:15 PM 53.6°F12.0°C 52.2°F11.2°C 95% Calm Calm -- 30.02 in1016.6 mb 0.00 in0.0 mm 0.00 in0.0 mm 0.32 in8.1 mm
09:20 PM 53.6°F12.0°C 52.2°F11.2°C 95% Calm Calm -- 30.02 in1016.6 mb 0.00 in0.0 mm 0.00 in0.0 mm 0.32 in8.1 mm
09:25 PM 53.6°F12.0°C 52.2°F11.2°C 95% Calm Calm -- 30.02 in1016.6 mb 0.00 in0.0 mm 0.00 in0.0 mm 0.32 in8.1 mm
09:30 PM 53.6°F12.0°C 52.2°F11.2°C 95% Calm Calm -- 30.02 in1016.6 mb 0.00 in0.0 mm 0.00 in0.0 mm 0.32 in8.1 mm
09:35 PM 53.6°F12.0°C 52.2°F11.2°C 95% Calm Calm -- 30.02 in1016.6 mb 0.00 in0.0 mm 0.00 in0.0 mm 0.32 in8.1 mm
09:40 PM 53.5°F11.9°C 52.0°F11.1°C 95% Calm Calm -- 30.02 in1016.6 mb 0.00 in0.0 mm 0.00 in0.0 mm 0.32 in8.1 mm
09:45 PM 53.5°F11.9°C 52.0°F11.1°C 95% Calm Calm -- 30.02 in1016.6 mb 0.00 in0.0 mm 0.00 in0.0 mm 0.32 in8.1 mm
09:50 PM 53.5°F11.9°C 52.0°F11.1°C 95% Calm Calm -- 30.02 in1016.6 mb 0.00 in0.0 mm 0.00 in0.0 mm 0.32 in8.1 mm
09:55 PM 53.4°F11.9°C 52.0°F11.1°C 95% Calm Calm -- 30.02 in1016.6 mb 0.00 in0.0 mm 0.00 in0.0 mm 0.32 in8.1 mm
10:00 PM 53.4°F11.9°C 52.0°F11.1°C 95% Calm Calm -- 30.03 in1016.9 mb 0.00 in0.0 mm 0.00 in0.0 mm 0.32 in8.1 mm
10:05 PM 53.4°F11.9°C 52.0°F11.1°C 95% Calm Calm -- 30.02 in1016.6 mb 0.00 in0.0 mm 0.00 in0.0 mm 0.32 in8.1 mm
10:10 PM 53.4°F11.9°C 52.0°F11.1°C 95% Calm Calm -- 30.02 in1016.6 mb 0.00 in0.0 mm 0.00 in0.0 mm 0.32 in8.1 mm
10:15 PM 53.4°F11.9°C 52.0°F11.1°C 95% Calm Calm -- 30.02 in1016.6 mb 0.00 in0.0 mm 0.00 in0.0 mm 0.32 in8.1 mm
10:20 PM 53.4°F11.9°C 52.0°F11.1°C 95% Calm Calm -- 30.02 in1016.6 mb 0.00 in0.0 mm 0.00 in0.0 mm 0.32 in8.1 mm
10:25 PM 53.4°F11.9°C 52.0°F11.1°C 95% Calm Calm -- 30.02 in1016.6 mb 0.00 in0.0 mm 0.00 in0.0 mm 0.32 in8.1 mm
10:30 PM 53.4°F11.9°C 52.0°F11.1°C 95% Calm Calm -- 30.02 in1016.6 mb 0.00 in0.0 mm 0.00 in0.0 mm 0.32 in8.1 mm
10:35 PM 53.4°F11.9°C 52.0°F11.1°C 95% Calm Calm -- 30.02 in1016.6 mb 0.00 in0.0 mm 0.00 in0.0 mm 0.32 in8.1 mm
10:40 PM 53.3°F11.8°C 51.8°F11.0°C 95% Calm Calm -- 30.02 in1016.6 mb 0.00 in0.0 mm 0.00 in0.0 mm 0.32 in8.1 mm
10:45 PM 53.3°F11.8°C 51.8°F11.0°C 95% Calm Calm -- 30.02 in1016.6 mb 0.00 in0.0 mm 0.00 in0.0 mm 0.32 in8.1 mm
10:50 PM 53.2°F11.8°C 51.8°F11.0°C 95% Calm Calm -- 30.01 in1016.3 mb 0.00 in0.0 mm 0.00 in0.0 mm 0.32 in8.1 mm
10:55 PM 53.2°F11.8°C 51.8°F11.0°C 95% Calm Calm -- 30.01 in1016.3 mb 0.00 in0.0 mm 0.00 in0.0 mm 0.32 in8.1 mm
11:00 PM 53.1°F11.7°C 51.6°F10.9°C 95% Calm Calm -- 30.02 in1016.6 mb 0.00 in0.0 mm 0.00 in0.0 mm 0.32 in8.1 mm
11:05 PM 53.0°F11.7°C 51.6°F10.9°C 95% Calm Calm -- 30.02 in1016.6 mb 0.00 in0.0 mm 0.00 in0.0 mm 0.32 in8.1 mm
11:10 PM 53.0°F11.7°C 51.6°F10.9°C 95% Calm Calm -- 30.02 in1016.6 mb 0.00 in0.0 mm 0.00 in0.0 mm 0.32 in8.1 mm
11:15 PM 52.9°F11.6°C 51.4°F10.8°C 95% Calm Calm -- 30.02 in1016.6 mb 0.00 in0.0 mm 0.00 in0.0 mm 0.32 in8.1 mm
11:20 PM 53.0°F11.7°C 51.6°F10.9°C 95% Calm Calm -- 30.02 in1016.6 mb 0.00 in0.0 mm 0.00 in0.0 mm 0.32 in8.1 mm
11:25 PM 52.9°F11.6°C 51.4°F10.8°C 95% Calm Calm -- 30.02 in1016.6 mb 0.00 in0.0 mm 0.00 in0.0 mm 0.32 in8.1 mm
11:30 PM 52.8°F11.6°C 51.4°F10.8°C 95% Calm Calm -- 30.02 in1016.6 mb 0.00 in0.0 mm 0.00 in0.0 mm 0.32 in8.1 mm
11:35 PM 52.7°F11.5°C 51.3°F10.7°C 95% Calm Calm -- 30.02 in1016.6 mb 0.00 in0.0 mm 0.00 in0.0 mm 0.32 in8.1 mm
11:40 PM 52.6°F11.4°C 51.1°F10.6°C 95% Calm Calm -- 30.02 in1016.6 mb 0.00 in0.0 mm 0.00 in0.0 mm 0.32 in8.1 mm
11:45 PM 52.5°F11.4°C 51.1°F10.6°C 95% Calm Calm -- 30.02 in1016.6 mb 0.00 in0.0 mm 0.00 in0.0 mm 0.32 in8.1 mm
11:50 PM 52.5°F11.4°C 51.1°F10.6°C 95% Calm Calm -- 30.03 in1016.9 mb 0.00 in0.0 mm 0.00 in0.0 mm 0.32 in8.1 mm
11:55 PM 52.3°F11.3°C 50.9°F10.5°C 95% Calm Calm -- 30.03 in1016.9 mb 0.00 in0.0 mm 0.00 in0.0 mm 0.32 in8.1 mm